createdAt,value
2023-03-05T00:00:36.831Z,0.00
2023-03-05T00:01:36.807Z,0.00
2023-03-05T00:02:36.821Z,0.00
2023-03-05T00:03:36.800Z,0.00
2023-03-05T00:04:36.765Z,0.00
2023-03-05T00:05:36.755Z,0.00
2023-03-05T00:06:36.752Z,0.00
2023-03-05T00:07:36.752Z,0.00
2023-03-05T00:08:36.733Z,0.00
2023-03-05T00:09:36.714Z,0.00
2023-03-05T00:10:36.725Z,0.00
2023-03-05T00:11:36.685Z,0.00
2023-03-05T00:12:36.701Z,0.00
2023-03-05T00:13:36.661Z,0.00
2023-03-05T00:14:36.663Z,0.00
2023-03-05T00:15:36.682Z,0.00
2023-03-05T00:16:36.644Z,0.00
2023-03-05T00:17:36.642Z,0.00
2023-03-05T00:18:36.635Z,0.00
2023-03-05T00:19:36.605Z,0.00
2023-03-05T00:20:36.602Z,0.00
2023-03-05T00:21:36.587Z,0.00
2023-03-05T00:22:36.596Z,0.00
2023-03-05T00:23:36.563Z,0.00
2023-03-05T00:24:36.555Z,0.00
2023-03-05T00:25:36.552Z,0.00
2023-03-05T00:26:36.571Z,0.00
2023-03-05T00:27:36.537Z,0.00
2023-03-05T00:28:36.519Z,0.00
2023-03-05T00:29:36.506Z,0.00
2023-03-05T00:30:36.501Z,0.00
2023-03-05T00:31:36.572Z,0.00
2023-03-05T00:32:36.568Z,0.00
2023-03-05T00:33:36.456Z,0.00
2023-03-05T00:34:36.452Z,0.00
2023-03-05T00:35:36.456Z,0.00
2023-03-05T00:36:36.439Z,0.00
2023-03-05T00:37:36.430Z,0.00
2023-03-05T00:38:36.410Z,0.00
2023-03-05T00:39:36.405Z,0.00
2023-03-05T00:40:36.439Z,0.00
2023-03-05T00:41:36.400Z,0.00
2023-03-05T00:42:36.412Z,0.00
2023-03-05T00:43:36.364Z,0.00
2023-03-05T00:44:36.344Z,0.00
2023-03-05T00:45:36.339Z,0.00
2023-03-05T00:46:36.394Z,0.00
2023-03-05T00:47:36.351Z,0.00
2023-03-05T00:48:36.301Z,0.00
2023-03-05T00:49:36.294Z,0.00
2023-03-05T00:50:36.292Z,0.00
2023-03-05T00:51:36.284Z,0.00
2023-03-05T00:52:36.292Z,0.00
2023-03-05T00:53:36.260Z,0.00
2023-03-05T00:54:36.242Z,0.00
2023-03-05T00:55:36.238Z,0.00
2023-03-05T00:56:36.235Z,0.00
2023-03-05T00:57:36.236Z,0.00
2023-03-05T00:58:36.207Z,0.00
2023-03-05T00:59:36.191Z,0.00
2023-03-05T01:00:36.179Z,0.00
2023-03-05T01:01:36.256Z,0.00
2023-03-05T01:02:36.174Z,0.00
2023-03-05T01:03:36.148Z,0.00
2023-03-05T01:04:36.130Z,0.00
2023-03-05T01:05:36.185Z,0.00
2023-03-05T01:06:36.112Z,0.00
2023-03-05T01:07:36.117Z,0.00
2023-03-05T01:08:36.084Z,0.00
2023-03-05T01:09:36.074Z,0.00
2023-03-05T01:10:36.078Z,0.00
2023-03-05T01:11:36.051Z,0.00
2023-03-05T01:12:36.062Z,0.00
2023-03-05T01:13:36.033Z,0.00
2023-03-05T01:14:36.021Z,0.00
2023-03-05T01:15:36.013Z,0.00
2023-03-05T01:16:36.000Z,0.00
2023-03-05T01:17:36.003Z,0.00
2023-03-05T01:18:35.969Z,0.00
2023-03-05T01:19:35.958Z,0.00
2023-03-05T01:20:35.938Z,0.00
2023-03-05T01:21:35.949Z,0.00
2023-03-05T01:22:35.938Z,0.00
2023-03-05T01:23:35.922Z,0.00
2023-03-05T01:24:35.906Z,0.00
2023-03-05T01:25:35.901Z,0.00
2023-03-05T01:26:35.879Z,0.00
2023-03-05T01:27:35.887Z,0.00
2023-03-05T01:28:35.861Z,0.00
2023-03-05T01:29:35.852Z,0.00
2023-03-05T01:30:35.843Z,0.00
2023-03-05T01:31:35.868Z,0.00
2023-03-05T01:32:35.993Z,0.00
2023-03-05T01:33:35.817Z,0.00
2023-03-05T01:34:35.794Z,0.00
2023-03-05T01:35:35.819Z,0.00
2023-03-05T01:36:35.776Z,0.00
2023-03-05T01:37:35.800Z,0.00
2023-03-05T01:38:35.751Z,0.00
2023-03-05T01:39:35.750Z,0.00
2023-03-05T01:40:35.750Z,0.00
2023-03-05T01:41:35.735Z,0.00
2023-03-05T01:42:35.748Z,0.00
2023-03-05T01:43:35.710Z,0.00
2023-03-05T01:44:35.692Z,0.00
2023-03-05T01:45:35.713Z,0.00
2023-03-05T01:46:35.675Z,0.00
2023-03-05T01:47:35.685Z,0.00
2023-03-05T01:48:35.652Z,0.00
2023-03-05T01:49:35.643Z,0.00
2023-03-05T01:50:35.633Z,0.00
2023-03-05T01:51:35.640Z,0.00
2023-03-05T01:52:35.627Z,0.00
2023-03-05T01:53:35.611Z,0.00
2023-03-05T01:54:35.593Z,0.00
2023-03-05T01:55:35.584Z,0.00
2023-03-05T01:56:35.564Z,0.00
2023-03-05T01:57:35.582Z,0.00
2023-03-05T01:58:35.548Z,0.00
2023-03-05T01:59:35.544Z,0.00
2023-03-05T02:00:35.527Z,0.00
2023-03-05T02:01:35.516Z,0.00
2023-03-05T02:02:35.515Z,0.00
2023-03-05T02:03:35.554Z,0.00
2023-03-05T02:04:35.486Z,0.00
2023-03-05T02:05:35.478Z,0.00
2023-03-05T02:06:35.465Z,0.00
2023-03-05T02:07:35.466Z,0.00
2023-03-05T02:08:35.446Z,0.00
2023-03-05T02:09:35.439Z,0.00
2023-03-05T02:10:35.430Z,0.00
2023-03-05T02:11:35.416Z,0.00
2023-03-05T02:12:35.418Z,0.00
2023-03-05T02:13:35.400Z,0.00
2023-03-05T02:14:35.405Z,0.00
2023-03-05T02:15:35.370Z,0.00
2023-03-05T02:16:35.397Z,0.00
2023-03-05T02:17:35.373Z,0.00
2023-03-05T02:18:35.348Z,0.00
2023-03-05T02:19:35.333Z,0.00
2023-03-05T02:20:35.322Z,0.00
2023-03-05T02:21:35.317Z,0.00
2023-03-05T02:22:35.324Z,0.00
2023-03-05T02:23:35.323Z,0.00
2023-03-05T02:24:35.294Z,0.00
2023-03-05T02:25:35.306Z,0.00
2023-03-05T02:26:35.258Z,0.00
2023-03-05T02:27:35.321Z,0.00
2023-03-05T02:28:35.261Z,0.00
2023-03-05T02:29:35.253Z,0.00
2023-03-05T02:30:35.219Z,0.00
2023-03-05T02:31:35.262Z,0.00
2023-03-05T02:32:35.249Z,0.00
2023-03-05T02:33:35.213Z,0.00
2023-03-05T02:34:35.180Z,0.00
2023-03-05T02:35:35.274Z,0.00
2023-03-05T02:36:35.161Z,0.00
2023-03-05T02:37:35.167Z,0.00
2023-03-05T02:38:35.160Z,0.00
2023-03-05T02:39:35.140Z,0.00
2023-03-05T02:40:35.119Z,0.00
2023-03-05T02:41:35.133Z,0.00
2023-03-05T02:42:35.092Z,0.00
2023-03-05T02:43:35.100Z,0.00
2023-03-05T02:44:35.072Z,0.00
2023-03-05T02:45:35.156Z,0.00
2023-03-05T02:46:35.065Z,0.00
2023-03-05T02:47:35.044Z,0.00
2023-03-05T02:48:35.051Z,0.00
2023-03-05T02:49:35.023Z,0.00
2023-03-05T02:50:35.016Z,0.00
2023-03-05T02:51:35.005Z,0.00
2023-03-05T02:52:34.991Z,0.00
2023-03-05T02:53:35.013Z,0.00
2023-03-05T02:54:34.965Z,0.00
2023-03-05T02:55:34.971Z,0.00
2023-03-05T02:56:34.944Z,0.00
2023-03-05T02:57:34.937Z,0.00
2023-03-05T02:58:34.962Z,0.00
2023-03-05T02:59:34.935Z,0.00
2023-03-05T03:00:34.908Z,0.00
2023-03-05T03:01:34.931Z,0.00
2023-03-05T03:02:34.879Z,0.00
2023-03-05T03:03:34.948Z,0.00
2023-03-05T03:04:34.867Z,0.00
2023-03-05T03:05:34.859Z,0.00
2023-03-05T03:06:34.844Z,0.00
2023-03-05T03:07:34.844Z,0.00
2023-03-05T03:08:34.847Z,0.00
2023-03-05T03:09:34.821Z,0.00
2023-03-05T03:10:34.799Z,0.00
2023-03-05T03:11:34.798Z,0.00
2023-03-05T03:12:34.781Z,0.00
2023-03-05T03:13:34.791Z,0.00
2023-03-05T03:14:34.799Z,0.00
2023-03-05T03:15:34.750Z,0.00
2023-03-05T03:16:34.775Z,0.00
2023-03-05T03:17:34.739Z,0.00
2023-03-05T03:18:34.736Z,0.00
2023-03-05T03:19:34.712Z,0.00
2023-03-05T03:20:34.695Z,0.00
2023-03-05T03:21:34.701Z,0.00
2023-03-05T03:22:34.675Z,0.00
2023-03-05T03:23:34.697Z,0.00
2023-03-05T03:24:34.665Z,0.00
2023-03-05T03:25:34.660Z,0.00
2023-03-05T03:26:34.644Z,0.00
2023-03-05T03:27:34.637Z,0.00
2023-03-05T03:28:34.635Z,0.00
2023-03-05T03:29:34.609Z,0.00
2023-03-05T03:30:34.611Z,0.00
2023-03-05T03:31:34.598Z,0.00
2023-03-05T03:32:34.691Z,0.00
2023-03-05T03:33:34.589Z,0.00
2023-03-05T03:34:34.562Z,0.00
2023-03-05T03:35:34.571Z,0.00
2023-03-05T03:36:34.535Z,0.00
2023-03-05T03:37:34.531Z,0.00
2023-03-05T03:38:34.535Z,0.00
2023-03-05T03:39:34.573Z,0.00
2023-03-05T03:40:34.570Z,0.00
2023-03-05T03:41:34.501Z,0.00
2023-03-05T03:42:34.476Z,0.00
2023-03-05T03:43:34.485Z,0.00
2023-03-05T03:44:34.468Z,0.00
2023-03-05T03:45:34.460Z,0.00
2023-03-05T03:46:34.472Z,0.00
2023-03-05T03:47:34.439Z,0.00
2023-03-05T03:48:34.427Z,0.00
2023-03-05T03:49:34.407Z,0.00
2023-03-05T03:50:34.407Z,0.00
2023-03-05T03:51:34.388Z,0.00
2023-03-05T03:52:34.374Z,0.00
2023-03-05T03:53:34.388Z,0.00
2023-03-05T03:54:34.350Z,0.00
2023-03-05T03:55:34.348Z,0.00
2023-03-05T03:56:34.339Z,0.00
2023-03-05T03:57:34.318Z,0.00
2023-03-05T03:58:34.329Z,0.00
2023-03-05T03:59:34.318Z,0.00
2023-03-05T04:00:34.290Z,0.00
2023-03-05T04:01:34.289Z,0.00
2023-03-05T04:02:34.307Z,0.00
2023-03-05T04:03:34.290Z,0.00
2023-03-05T04:04:34.305Z,0.00
2023-03-05T04:05:34.250Z,0.00
2023-03-05T04:06:34.230Z,0.00
2023-03-05T04:07:34.226Z,0.00
2023-03-05T04:08:34.232Z,0.00
2023-03-05T04:09:34.203Z,0.00
2023-03-05T04:10:34.199Z,0.00
2023-03-05T04:11:34.172Z,0.00
2023-03-05T04:12:34.173Z,0.00
2023-03-05T04:13:34.184Z,0.00
2023-03-05T04:14:34.156Z,0.00
2023-03-05T04:15:34.138Z,0.00
2023-03-05T04:16:34.129Z,0.00
2023-03-05T04:17:34.117Z,0.00
2023-03-05T04:18:34.127Z,0.00
2023-03-05T04:19:34.102Z,0.00
2023-03-05T04:20:34.084Z,0.00
2023-03-05T04:21:34.077Z,0.00
2023-03-05T04:22:34.057Z,0.00
2023-03-05T04:23:34.075Z,0.00
2023-03-05T04:24:34.038Z,0.00
2023-03-05T04:25:34.032Z,0.00
2023-03-05T04:26:34.018Z,0.00
2023-03-05T04:27:34.018Z,0.00
2023-03-05T04:28:34.020Z,0.00
2023-03-05T04:29:33.987Z,0.00
2023-03-05T04:30:33.974Z,0.00
2023-03-05T04:31:34.019Z,0.00
2023-03-05T04:32:34.035Z,0.00
2023-03-05T04:33:33.966Z,0.00
2023-03-05T04:34:33.945Z,0.00
2023-03-05T04:35:33.985Z,0.00
2023-03-05T04:36:33.925Z,0.00
2023-03-05T04:37:33.913Z,0.00
2023-03-05T04:38:33.907Z,0.00
2023-03-05T04:39:33.894Z,0.00
2023-03-05T04:40:33.886Z,0.00
2023-03-05T04:41:33.876Z,0.00
2023-03-05T04:42:33.869Z,0.00
2023-03-05T04:43:33.884Z,0.00
2023-03-05T04:44:33.826Z,0.00
2023-03-05T04:45:33.825Z,0.00
2023-03-05T04:46:33.848Z,0.00
2023-03-05T04:47:33.806Z,0.00
2023-03-05T04:48:33.813Z,0.00
2023-03-05T04:49:33.776Z,0.00
2023-03-05T04:50:33.772Z,0.00
2023-03-05T04:51:33.756Z,0.00
2023-03-05T04:52:33.753Z,0.00
2023-03-05T04:53:33.770Z,0.00
2023-03-05T04:54:33.734Z,0.00
2023-03-05T04:55:33.705Z,0.00
2023-03-05T04:56:33.706Z,0.00
2023-03-05T04:57:33.687Z,0.00
2023-03-05T04:58:33.698Z,0.00
2023-03-05T04:59:33.667Z,0.00
2023-03-05T05:00:33.659Z,0.00
2023-03-05T05:01:33.671Z,0.00
2023-03-05T05:02:33.717Z,0.00
2023-03-05T05:03:33.650Z,0.00
2023-03-05T05:04:33.624Z,0.00
2023-03-05T05:05:33.637Z,0.00
2023-03-05T05:06:33.610Z,0.00
2023-03-05T05:07:33.619Z,0.00
2023-03-05T05:08:33.602Z,0.00
2023-03-05T05:09:33.572Z,0.00
2023-03-05T05:10:33.562Z,0.00
2023-03-05T05:11:33.545Z,0.00
2023-03-05T05:12:33.554Z,0.00
2023-03-05T05:13:33.547Z,0.00
2023-03-05T05:14:33.522Z,0.00
2023-03-05T05:15:33.542Z,0.00
2023-03-05T05:16:33.568Z,0.00
2023-03-05T05:17:33.487Z,0.00
2023-03-05T05:18:33.504Z,0.00
2023-03-05T05:19:33.524Z,0.00
2023-03-05T05:20:33.484Z,0.00
2023-03-05T05:21:33.439Z,0.00
2023-03-05T05:22:33.445Z,0.00
2023-03-05T05:23:33.436Z,0.00
2023-03-05T05:24:33.417Z,0.00
2023-03-05T05:25:33.397Z,0.00
2023-03-05T05:26:33.397Z,0.00
2023-03-05T05:27:33.400Z,0.00
2023-03-05T05:28:33.393Z,0.00
2023-03-05T05:29:33.357Z,0.00
2023-03-05T05:30:33.356Z,0.00
2023-03-05T05:31:33.401Z,0.00
2023-03-05T05:32:33.398Z,0.00
2023-03-05T05:33:33.330Z,0.00
2023-03-05T05:34:33.314Z,0.00
2023-03-05T05:35:33.321Z,0.00
2023-03-05T05:36:33.293Z,0.00
2023-03-05T05:37:33.284Z,0.00
2023-03-05T05:38:33.292Z,0.00
2023-03-05T05:39:33.266Z,0.00
2023-03-05T05:40:33.276Z,0.00
2023-03-05T05:41:33.250Z,0.00
2023-03-05T05:42:33.246Z,0.00
2023-03-05T05:43:33.243Z,0.00
2023-03-05T05:44:33.217Z,0.00
2023-03-05T05:45:33.324Z,0.00
2023-03-05T05:46:33.278Z,0.00
2023-03-05T05:47:33.184Z,0.00
2023-03-05T05:48:33.141Z,1.00
2023-03-05T05:49:33.161Z,0.00
2023-03-05T05:50:33.164Z,0.00
2023-03-05T05:51:33.142Z,0.00
2023-03-05T05:52:33.133Z,0.00
2023-03-05T05:53:33.134Z,0.00
2023-03-05T05:54:33.121Z,0.00
2023-03-05T05:55:33.099Z,0.00
2023-03-05T05:56:33.092Z,0.00
2023-03-05T05:57:33.073Z,0.00
2023-03-05T05:58:33.093Z,0.00
2023-03-05T05:59:33.056Z,0.00
2023-03-05T06:00:33.044Z,0.00
2023-03-05T06:01:33.126Z,0.00
2023-03-05T06:02:33.024Z,0.00
2023-03-05T06:03:32.972Z,1.00
2023-03-05T06:04:33.026Z,0.00
2023-03-05T06:05:32.951Z,4.00
2023-03-05T06:06:33.031Z,3.00
2023-03-05T06:07:32.914Z,2.00
2023-03-05T06:08:32.924Z,5.00
2023-03-05T06:09:32.913Z,2.00
2023-03-05T06:10:32.891Z,2.00
2023-03-05T06:11:32.883Z,2.00
2023-03-05T06:12:32.877Z,3.00
2023-03-05T06:13:32.857Z,4.00
2023-03-05T06:14:32.881Z,5.00
2023-03-05T06:15:32.828Z,9.00
2023-03-05T06:16:32.891Z,7.00
2023-03-05T06:17:32.826Z,5.00
2023-03-05T06:18:32.809Z,6.00
2023-03-05T06:19:32.808Z,6.00
2023-03-05T06:20:32.789Z,8.00
2023-03-05T06:21:32.936Z,9.00
2023-03-05T06:22:32.768Z,10.00
2023-03-05T06:23:32.749Z,15.00
2023-03-05T06:24:32.760Z,9.00
2023-03-05T06:25:32.719Z,5.00
2023-03-05T06:26:32.735Z,4.00
2023-03-05T06:27:32.712Z,4.00
2023-03-05T06:28:32.701Z,6.00
2023-03-05T06:29:32.710Z,12.00
2023-03-05T06:30:32.708Z,13.00
2023-03-05T06:31:32.669Z,14.00
2023-03-05T06:32:32.680Z,19.00
2023-03-05T06:33:32.682Z,18.00
2023-03-05T06:34:32.662Z,13.00
2023-03-05T06:35:32.738Z,14.00
2023-03-05T06:36:32.622Z,13.00
2023-03-05T06:37:32.642Z,18.00
2023-03-05T06:38:32.631Z,21.00
2023-03-05T06:39:32.607Z,20.00
2023-03-05T06:40:32.580Z,20.00
2023-03-05T06:41:32.563Z,21.00
2023-03-05T06:42:32.554Z,24.00
2023-03-05T06:43:32.555Z,24.00
2023-03-05T06:44:32.554Z,22.00
2023-03-05T06:45:32.524Z,18.00
2023-03-05T06:46:32.514Z,26.00
2023-03-05T06:47:32.521Z,35.00
2023-03-05T06:48:32.507Z,35.00
2023-03-05T06:49:32.498Z,31.00
2023-03-05T06:50:32.480Z,28.00
2023-03-05T06:51:32.465Z,36.00
2023-03-05T06:52:32.457Z,31.00
2023-03-05T06:53:32.437Z,30.00
2023-03-05T06:54:32.464Z,32.00
2023-03-05T06:55:32.417Z,30.00
2023-03-05T06:56:32.429Z,27.00
2023-03-05T06:57:32.398Z,37.00
2023-03-05T06:58:32.391Z,43.00
2023-03-05T06:59:32.400Z,45.00
2023-03-05T07:00:32.372Z,45.00
2023-03-05T07:01:32.374Z,52.00
2023-03-05T07:02:32.391Z,42.00
2023-03-05T07:03:32.339Z,27.00
2023-03-05T07:04:32.352Z,26.00
2023-03-05T07:05:34.156Z,38.00
2023-03-05T07:06:32.328Z,44.00
2023-03-05T07:07:32.293Z,39.00
2023-03-05T07:08:32.292Z,36.00
2023-03-05T07:09:32.310Z,32.00
2023-03-05T07:10:32.264Z,37.00
2023-03-05T07:11:32.261Z,36.00
2023-03-05T07:12:32.253Z,37.00
2023-03-05T07:13:32.233Z,33.00
2023-03-05T07:14:32.257Z,31.00
2023-03-05T07:15:32.237Z,32.00
2023-03-05T07:16:32.214Z,37.00
2023-03-05T07:17:32.194Z,60.00
2023-03-05T07:18:32.189Z,67.00
2023-03-05T07:19:32.197Z,61.00
2023-03-05T07:20:32.164Z,59.00
2023-03-05T07:21:32.167Z,58.00
2023-03-05T07:22:32.150Z,63.00
2023-03-05T07:23:32.192Z,61.00
2023-03-05T07:24:32.149Z,58.00
2023-03-05T07:25:32.110Z,57.00
2023-03-05T07:26:32.109Z,57.00
2023-03-05T07:27:32.088Z,66.00
2023-03-05T07:28:32.092Z,58.00
2023-03-05T07:29:32.088Z,53.00
2023-03-05T07:30:32.066Z,65.00
2023-03-05T07:31:32.347Z,82.00
2023-03-05T07:32:32.099Z,81.00
2023-03-05T07:33:32.036Z,87.00
2023-03-05T07:34:32.040Z,75.00
2023-03-05T07:35:32.026Z,81.00
2023-03-05T07:36:32.034Z,102.00
2023-03-05T07:37:31.978Z,91.00
2023-03-05T07:38:31.992Z,141.00
2023-03-05T07:39:31.986Z,100.00
2023-03-05T07:40:31.960Z,52.00
2023-03-05T07:41:31.945Z,32.00
2023-03-05T07:42:32.060Z,75.00
2023-03-05T07:43:31.934Z,46.00
2023-03-05T07:44:31.933Z,39.00
2023-03-05T07:45:31.902Z,61.00
2023-03-05T07:46:31.967Z,102.00
2023-03-05T07:47:31.891Z,142.00
2023-03-05T07:48:31.872Z,145.00
2023-03-05T07:49:31.891Z,138.00
2023-03-05T07:50:31.865Z,114.00
2023-03-05T07:51:31.846Z,118.00
2023-03-05T07:52:31.837Z,78.00
2023-03-05T07:53:31.826Z,63.00
2023-03-05T07:54:31.835Z,64.00
2023-03-05T07:55:31.799Z,60.00
2023-03-05T07:56:31.918Z,49.00
2023-03-05T07:57:31.811Z,49.00
2023-03-05T07:58:31.780Z,45.00
2023-03-05T07:59:31.778Z,37.00
2023-03-05T08:00:31.748Z,37.00
2023-03-05T08:01:31.741Z,34.00
2023-03-05T08:02:31.818Z,34.00
2023-03-05T08:03:31.720Z,30.00
2023-03-05T08:04:31.751Z,31.00
2023-03-05T08:05:31.706Z,32.00
2023-03-05T08:06:31.710Z,39.00
2023-03-05T08:07:31.681Z,35.00
2023-03-05T08:08:31.672Z,34.00
2023-03-05T08:09:31.675Z,37.00
2023-03-05T08:10:31.657Z,38.00
2023-03-05T08:11:31.633Z,35.00
2023-03-05T08:12:31.635Z,37.00
2023-03-05T08:13:31.613Z,32.00
2023-03-05T08:14:31.633Z,29.00
2023-03-05T08:15:31.595Z,24.00
2023-03-05T08:16:31.608Z,33.00
2023-03-05T08:17:31.575Z,35.00
2023-03-05T08:18:31.571Z,35.00
2023-03-05T08:19:31.564Z,26.00
2023-03-05T08:20:31.544Z,19.00
2023-03-05T08:21:31.532Z,38.00
2023-03-05T08:22:31.524Z,59.00
2023-03-05T08:23:31.509Z,70.00
2023-03-05T08:24:31.523Z,57.00
2023-03-05T08:25:31.514Z,57.00
2023-03-05T08:26:31.480Z,50.00
2023-03-05T08:27:31.467Z,46.00
2023-03-05T08:28:33.352Z,41.00
2023-03-05T08:29:31.475Z,37.00
2023-03-05T08:30:31.435Z,33.00
2023-03-05T08:31:31.442Z,25.00
2023-03-05T08:32:31.486Z,26.00
2023-03-05T08:33:33.000Z,15.00
2023-03-05T08:34:31.436Z,34.00
2023-03-05T08:35:31.409Z,47.00
2023-03-05T08:36:31.378Z,47.00
2023-03-05T08:37:31.370Z,34.00
2023-03-05T08:38:31.362Z,65.00
2023-03-05T08:39:31.366Z,53.00
2023-03-05T08:40:31.347Z,80.00
2023-03-05T08:41:31.318Z,87.00
2023-03-05T08:42:31.351Z,107.00
2023-03-05T08:43:31.315Z,94.00
2023-03-05T08:44:31.310Z,112.00
2023-03-05T08:45:31.281Z,63.00
2023-03-05T08:46:31.273Z,96.00
2023-03-05T08:47:31.261Z,147.00
2023-03-05T08:48:31.251Z,77.00
2023-03-05T08:49:31.241Z,89.00
2023-03-05T08:50:31.253Z,232.00
2023-03-05T08:51:31.223Z,186.00
2023-03-05T08:52:31.212Z,257.00
2023-03-05T08:53:31.193Z,248.00
2023-03-05T08:54:31.194Z,329.00
2023-03-05T08:55:31.196Z,342.00
2023-03-05T08:56:31.208Z,263.00
2023-03-05T08:57:31.164Z,184.00
2023-03-05T08:58:31.146Z,123.00
2023-03-05T08:59:31.134Z,116.00
2023-03-05T09:00:31.146Z,129.00
2023-03-05T09:01:31.193Z,123.00
2023-03-05T09:02:31.123Z,90.00
2023-03-05T09:03:31.097Z,81.00
2023-03-05T09:04:31.096Z,143.00
2023-03-05T09:05:31.091Z,337.00
2023-03-05T09:06:31.076Z,321.00
2023-03-05T09:07:31.057Z,274.00
2023-03-05T09:08:31.049Z,216.00
2023-03-05T09:09:31.028Z,181.00
2023-03-05T09:10:31.052Z,163.00
2023-03-05T09:11:31.027Z,191.00
2023-03-05T09:12:30.999Z,167.00
2023-03-05T09:13:31.002Z,197.00
2023-03-05T09:14:30.981Z,427.00
2023-03-05T09:15:30.989Z,311.00
2023-03-05T09:16:31.025Z,264.00
2023-03-05T09:17:30.952Z,272.00
2023-03-05T09:18:30.941Z,215.00
2023-03-05T09:19:30.932Z,222.00
2023-03-05T09:20:30.941Z,259.00
2023-03-05T09:21:30.916Z,238.00
2023-03-05T09:22:30.892Z,271.00
2023-03-05T09:23:30.890Z,259.00
2023-03-05T09:24:30.881Z,385.00
2023-03-05T09:25:30.882Z,240.00
2023-03-05T09:26:30.850Z,224.00
2023-03-05T09:27:30.852Z,325.00
2023-03-05T09:28:30.832Z,473.00
2023-03-05T09:29:30.836Z,370.00
2023-03-05T09:30:30.843Z,353.00
2023-03-05T09:31:30.887Z,255.00
2023-03-05T09:32:30.889Z,292.00
2023-03-05T09:33:30.795Z,192.00
2023-03-05T09:34:30.775Z,188.00
2023-03-05T09:35:30.799Z,189.00
2023-03-05T09:36:30.747Z,172.00
2023-03-05T09:37:30.744Z,130.00
2023-03-05T09:38:30.727Z,174.00
2023-03-05T09:39:30.746Z,168.00
2023-03-05T09:40:30.725Z,126.00
2023-03-05T09:41:30.716Z,56.00
2023-03-05T09:42:30.708Z,54.00
2023-03-05T09:43:30.685Z,67.00
2023-03-05T09:44:30.699Z,101.00
2023-03-05T09:45:30.704Z,191.00
2023-03-05T09:46:30.652Z,197.00
2023-03-05T09:47:30.638Z,209.00
2023-03-05T09:48:30.626Z,248.00
2023-03-05T09:49:30.625Z,342.00
2023-03-05T09:50:30.626Z,320.00
2023-03-05T09:51:30.599Z,294.00
2023-03-05T09:52:30.579Z,521.00
2023-03-05T09:53:30.583Z,430.00
2023-03-05T09:54:30.564Z,488.00
2023-03-05T09:55:30.574Z,328.00
2023-03-05T09:56:30.540Z,305.00
2023-03-05T09:57:30.535Z,303.00
2023-03-05T09:58:30.523Z,183.00
2023-03-05T09:59:30.511Z,456.00
2023-03-05T10:00:30.518Z,576.00
2023-03-05T10:01:30.530Z,565.00
2023-03-05T10:02:30.508Z,402.00
2023-03-05T10:03:30.562Z,300.00
2023-03-05T10:04:30.506Z,193.00
2023-03-05T10:05:30.476Z,235.00
2023-03-05T10:06:30.444Z,238.00
2023-03-05T10:07:30.437Z,214.00
2023-03-05T10:08:30.414Z,184.00
2023-03-05T10:09:30.419Z,142.00
2023-03-05T10:10:30.417Z,125.00
2023-03-05T10:11:30.390Z,95.00
2023-03-05T10:12:30.435Z,80.00
2023-03-05T10:13:30.375Z,86.00
2023-03-05T10:14:30.369Z,85.00
2023-03-05T10:15:31.977Z,95.00
2023-03-05T10:16:30.373Z,109.00
2023-03-05T10:17:30.339Z,106.00
2023-03-05T10:18:30.329Z,118.00
2023-03-05T10:19:30.314Z,105.00
2023-03-05T10:20:30.311Z,77.00
2023-03-05T10:21:30.290Z,88.00
2023-03-05T10:22:30.280Z,94.00
2023-03-05T10:23:30.274Z,55.00
2023-03-05T10:24:30.250Z,88.00
2023-03-05T10:25:30.264Z,120.00
2023-03-05T10:26:30.232Z,109.00
2023-03-05T10:27:30.307Z,212.00
2023-03-05T10:28:30.220Z,127.00
2023-03-05T10:29:30.202Z,104.00
2023-03-05T10:30:30.217Z,278.00
2023-03-05T10:31:30.200Z,125.00
2023-03-05T10:32:30.236Z,138.00
2023-03-05T10:33:31.691Z,175.00
2023-03-05T10:34:30.144Z,216.00
2023-03-05T10:35:30.202Z,185.00
2023-03-05T10:36:30.130Z,208.00
2023-03-05T10:37:30.124Z,278.00
2023-03-05T10:38:30.106Z,218.00
2023-03-05T10:39:30.104Z,195.00
2023-03-05T10:40:30.096Z,173.00
2023-03-05T10:41:30.076Z,119.00
2023-03-05T10:42:31.258Z,111.00
2023-03-05T10:43:30.063Z,103.00
2023-03-05T10:44:30.046Z,92.00
2023-03-05T10:45:30.092Z,96.00
2023-03-05T10:46:30.022Z,93.00
2023-03-05T10:47:30.019Z,89.00
2023-03-05T10:48:29.998Z,89.00
2023-03-05T10:49:29.998Z,80.00
2023-03-05T10:50:29.999Z,70.00
2023-03-05T10:51:29.970Z,71.00
2023-03-05T10:52:29.968Z,70.00
2023-03-05T10:53:29.960Z,73.00
2023-03-05T10:54:30.015Z,56.00
2023-03-05T10:55:29.958Z,81.00
2023-03-05T10:56:29.933Z,90.00
2023-03-05T10:57:29.911Z,75.00
2023-03-05T10:58:29.900Z,64.00
2023-03-05T10:59:29.893Z,40.00
2023-03-05T11:00:29.891Z,45.00
2023-03-05T11:01:29.914Z,41.00
2023-03-05T11:02:29.928Z,75.00
2023-03-05T11:03:29.852Z,86.00
2023-03-05T11:04:29.840Z,75.00
2023-03-05T11:05:29.841Z,75.00
2023-03-05T11:06:29.810Z,39.00
2023-03-05T11:07:29.809Z,31.00
2023-03-05T11:08:29.789Z,28.00
2023-03-05T11:09:29.825Z,65.00
2023-03-05T11:10:29.811Z,75.00
2023-03-05T11:11:29.761Z,107.00
2023-03-05T11:12:29.750Z,125.00
2023-03-05T11:13:29.750Z,116.00
2023-03-05T11:14:29.742Z,80.00
2023-03-05T11:15:29.724Z,34.00
2023-03-05T11:16:29.720Z,45.00
2023-03-05T11:17:29.713Z,82.00
2023-03-05T11:18:29.681Z,102.00
2023-03-05T11:19:29.709Z,154.00
2023-03-05T11:20:29.687Z,171.00
2023-03-05T11:21:29.674Z,191.00
2023-03-05T11:22:29.641Z,180.00
2023-03-05T11:23:29.638Z,195.00
2023-03-05T11:24:29.634Z,247.00
2023-03-05T11:25:29.620Z,405.00
2023-03-05T11:26:29.617Z,52.00
2023-03-05T11:27:29.593Z,106.00
2023-03-05T11:28:33.285Z,89.00
2023-03-05T11:29:29.574Z,61.00
2023-03-05T11:30:29.567Z,41.00
2023-03-05T11:31:29.573Z,35.00
2023-03-05T11:32:29.585Z,27.00
2023-03-05T11:33:29.526Z,21.00
2023-03-05T11:34:29.514Z,25.00
2023-03-05T11:35:29.528Z,26.00
2023-03-05T11:36:29.515Z,32.00
2023-03-05T11:37:29.511Z,27.00
2023-03-05T11:38:29.493Z,33.00
2023-03-05T11:39:29.467Z,37.00
2023-03-05T11:40:29.458Z,36.00
2023-03-05T11:41:29.468Z,38.00
2023-03-05T11:42:29.437Z,40.00
2023-03-05T11:43:29.428Z,40.00
2023-03-05T11:44:29.416Z,48.00
2023-03-05T11:45:29.417Z,51.00
2023-03-05T11:46:29.456Z,51.00
2023-03-05T11:47:29.394Z,48.00
2023-03-05T11:48:29.384Z,47.00
2023-03-05T11:49:29.374Z,55.00
2023-03-05T11:50:29.353Z,51.00
2023-03-05T11:51:29.369Z,59.00
2023-03-05T11:52:29.333Z,71.00
2023-03-05T11:53:29.327Z,195.00
2023-03-05T11:54:29.313Z,218.00
2023-03-05T11:55:29.305Z,109.00
2023-03-05T11:56:29.329Z,93.00
2023-03-05T11:57:29.286Z,85.00
2023-03-05T11:58:29.285Z,76.00
2023-03-05T11:59:29.298Z,67.00
2023-03-05T12:00:29.276Z,46.00
2023-03-05T12:01:29.274Z,54.00
2023-03-05T12:02:29.266Z,80.00
2023-03-05T12:03:29.273Z,71.00
2023-03-05T12:04:29.209Z,48.00
2023-03-05T12:05:29.216Z,40.00
2023-03-05T12:06:29.219Z,27.00
2023-03-05T12:07:29.183Z,23.00
2023-03-05T12:08:29.181Z,27.00
2023-03-05T12:09:29.163Z,27.00
2023-03-05T12:10:29.187Z,35.00
2023-03-05T12:11:29.164Z,50.00
2023-03-05T12:12:29.128Z,60.00
2023-03-05T12:13:29.137Z,148.00
2023-03-05T12:14:29.127Z,189.00
2023-03-05T12:15:29.106Z,110.00
2023-03-05T12:16:29.165Z,107.00
2023-03-05T12:17:29.088Z,197.00
2023-03-05T12:18:29.077Z,337.00
2023-03-05T12:19:29.073Z,140.00
2023-03-05T12:20:29.079Z,88.00
2023-03-05T12:21:29.058Z,66.00
2023-03-05T12:22:29.039Z,58.00
2023-03-05T12:23:29.033Z,84.00
2023-03-05T12:24:29.008Z,94.00
2023-03-05T12:25:29.015Z,31.00
2023-03-05T12:26:29.001Z,57.00
2023-03-05T12:27:28.981Z,34.00
2023-03-05T12:28:28.962Z,73.00
2023-03-05T12:29:28.964Z,42.00
2023-03-05T12:30:29.456Z,108.00
2023-03-05T12:31:29.018Z,65.00
2023-03-05T12:32:29.064Z,87.00
2023-03-05T12:33:28.928Z,332.00
2023-03-05T12:34:28.903Z,115.00
2023-03-05T12:35:28.944Z,84.00
2023-03-05T12:36:28.905Z,71.00
2023-03-05T12:37:28.876Z,61.00
2023-03-05T12:38:28.867Z,48.00
2023-03-05T12:39:28.860Z,36.00
2023-03-05T12:40:28.844Z,28.00
2023-03-05T12:41:28.848Z,53.00
2023-03-05T12:42:28.834Z,46.00
2023-03-05T12:43:28.817Z,36.00
2023-03-05T12:44:28.815Z,44.00
2023-03-05T12:45:28.802Z,43.00
2023-03-05T12:46:28.826Z,32.00
2023-03-05T12:47:28.784Z,31.00
2023-03-05T12:48:28.790Z,25.00
2023-03-05T12:49:28.754Z,22.00
2023-03-05T12:50:28.752Z,16.00
2023-03-05T12:51:28.753Z,20.00
2023-03-05T12:52:28.733Z,15.00
2023-03-05T12:53:28.710Z,16.00
2023-03-05T12:54:28.697Z,17.00
2023-03-05T12:55:28.695Z,16.00
2023-03-05T12:56:28.692Z,18.00
2023-03-05T12:57:28.673Z,21.00
2023-03-05T12:58:28.653Z,10.00
2023-03-05T12:59:28.654Z,13.00
2023-03-05T13:00:28.676Z,10.00